sensor_id;sensor_type;location;lat;lon;timestamp;P1;durP1;ratioP1;P2;durP2;ratioP2
33987;SDS011;37428;53.580;-1.666;2023-06-19T00:00:40;8.18;;;7.32;;
33987;SDS011;37428;53.580;-1.666;2023-06-19T00:03:42;8.60;;;7.78;;
33987;SDS011;37428;53.580;-1.666;2023-06-19T00:06:46;8.15;;;7.35;;
33987;SDS011;37428;53.580;-1.666;2023-06-19T00:09:48;8.75;;;7.07;;
33987;SDS011;37428;53.580;-1.666;2023-06-19T00:12:50;7.97;;;7.22;;
33987;SDS011;37428;53.580;-1.666;2023-06-19T00:15:54;7.70;;;6.88;;
33987;SDS011;37428;53.580;-1.666;2023-06-19T00:19:01;8.80;;;7.57;;
33987;SDS011;37428;53.580;-1.666;2023-06-19T00:22:05;8.27;;;7.63;;
33987;SDS011;37428;53.580;-1.666;2023-06-19T00:25:09;8.07;;;7.38;;
33987;SDS011;37428;53.580;-1.666;2023-06-19T00:28:21;9.07;;;7.20;;
33987;SDS011;37428;53.580;-1.666;2023-06-19T00:31:29;8.70;;;7.82;;
33987;SDS011;37428;53.580;-1.666;2023-06-19T00:34:39;8.90;;;8.10;;
33987;SDS011;37428;53.580;-1.666;2023-06-19T00:37:44;8.35;;;7.55;;
33987;SDS011;37428;53.580;-1.666;2023-06-19T00:40:52;7.70;;;7.00;;
33987;SDS011;37428;53.580;-1.666;2023-06-19T00:44:06;8.02;;;7.43;;
33987;SDS011;37428;53.580;-1.666;2023-06-19T00:47:20;8.00;;;7.28;;
33987;SDS011;37428;53.580;-1.666;2023-06-19T00:50:23;8.82;;;8.10;;
33987;SDS011;37428;53.580;-1.666;2023-06-19T00:53:27;8.38;;;7.68;;
33987;SDS011;37428;53.580;-1.666;2023-06-19T00:56:30;7.50;;;6.88;;
33987;SDS011;37428;53.580;-1.666;2023-06-19T00:59:34;7.93;;;7.13;;
33987;SDS011;37428;53.580;-1.666;2023-06-19T01:02:37;7.65;;;7.05;;
33987;SDS011;37428;53.580;-1.666;2023-06-19T01:05:46;7.03;;;6.32;;
33987;SDS011;37428;53.580;-1.666;2023-06-19T01:08:56;6.75;;;6.05;;
33987;SDS011;37428;53.580;-1.666;2023-06-19T01:12:18;6.10;;;5.60;;
33987;SDS011;37428;53.580;-1.666;2023-06-19T01:15:25;6.07;;;5.57;;
33987;SDS011;37428;53.580;-1.666;2023-06-19T01:18:29;13.95;;;6.60;;
33987;SDS011;37428;53.580;-1.666;2023-06-19T01:21:33;7.82;;;7.07;;
33987;SDS011;37428;53.580;-1.666;2023-06-19T01:24:39;8.10;;;7.50;;
33987;SDS011;37428;53.580;-1.666;2023-06-19T01:27:43;10.38;;;9.48;;
33987;SDS011;37428;53.580;-1.666;2023-06-19T01:30:49;10.50;;;9.70;;
33987;SDS011;37428;53.580;-1.666;2023-06-19T01:33:52;10.50;;;9.70;;
33987;SDS011;37428;53.580;-1.666;2023-06-19T01:36:57;12.82;;;11.73;;
33987;SDS011;37428;53.580;-1.666;2023-06-19T01:40:07;14.82;;;13.52;;
33987;SDS011;37428;53.580;-1.666;2023-06-19T01:43:11;17.00;;;15.27;;
33987;SDS011;37428;53.580;-1.666;2023-06-19T01:46:15;17.30;;;15.65;;
33987;SDS011;37428;53.580;-1.666;2023-06-19T01:49:17;17.02;;;15.57;;
33987;SDS011;37428;53.580;-1.666;2023-06-19T01:52:20;18.42;;;16.77;;
33987;SDS011;37428;53.580;-1.666;2023-06-19T01:55:23;19.85;;;17.75;;
33987;SDS011;37428;53.580;-1.666;2023-06-19T01:58:25;18.45;;;16.73;;
33987;SDS011;37428;53.580;-1.666;2023-06-19T02:01:27;21.08;;;18.98;;
33987;SDS011;37428;53.580;-1.666;2023-06-19T02:07:32;21.10;;;18.73;;
33987;SDS011;37428;53.580;-1.666;2023-06-19T02:10:35;19.58;;;17.77;;
33987;SDS011;37428;53.580;-1.666;2023-06-19T02:13:39;16.73;;;15.07;;
33987;SDS011;37428;53.580;-1.666;2023-06-19T02:16:42;13.98;;;12.77;;
33987;SDS011;37428;53.580;-1.666;2023-06-19T02:19:44;17.00;;;15.50;;
33987;SDS011;37428;53.580;-1.666;2023-06-19T02:22:48;14.43;;;13.07;;
33987;SDS011;37428;53.580;-1.666;2023-06-19T02:25:51;14.65;;;13.45;;
33987;SDS011;37428;53.580;-1.666;2023-06-19T02:28:53;16.50;;;14.80;;
33987;SDS011;37428;53.580;-1.666;2023-06-19T02:31:57;17.02;;;15.57;;
33987;SDS011;37428;53.580;-1.666;2023-06-19T02:34:59;14.05;;;12.85;;
33987;SDS011;37428;53.580;-1.666;2023-06-19T02:38:03;16.02;;;14.52;;
33987;SDS011;37428;53.580;-1.666;2023-06-19T02:41:07;19.33;;;17.63;;
33987;SDS011;37428;53.580;-1.666;2023-06-19T02:44:16;22.05;;;19.85;;
33987;SDS011;37428;53.580;-1.666;2023-06-19T02:47:18;23.75;;;21.45;;
33987;SDS011;37428;53.580;-1.666;2023-06-19T02:50:20;21.80;;;19.73;;
33987;SDS011;37428;53.580;-1.666;2023-06-19T02:53:23;22.55;;;20.50;;
33987;SDS011;37428;53.580;-1.666;2023-06-19T02:56:26;22.38;;;20.33;;
33987;SDS011;37428;53.580;-1.666;2023-06-19T02:59:29;22.05;;;19.95;;
33987;SDS011;37428;53.580;-1.666;2023-06-19T03:02:31;21.30;;;19.50;;
33987;SDS011;37428;53.580;-1.666;2023-06-19T03:05:33;20.98;;;19.13;;
33987;SDS011;37428;53.580;-1.666;2023-06-19T03:08:35;18.95;;;17.05;;
33987;SDS011;37428;53.580;-1.666;2023-06-19T03:11:39;18.05;;;16.60;;
33987;SDS011;37428;53.580;-1.666;2023-06-19T03:14:43;16.77;;;15.10;;
33987;SDS011;37428;53.580;-1.666;2023-06-19T03:17:47;15.38;;;14.00;;
33987;SDS011;37428;53.580;-1.666;2023-06-19T03:20:49;15.50;;;14.20;;
33987;SDS011;37428;53.580;-1.666;2023-06-19T03:23:53;15.90;;;14.30;;
33987;SDS011;37428;53.580;-1.666;2023-06-19T03:26:56;15.23;;;13.85;;
33987;SDS011;37428;53.580;-1.666;2023-06-19T03:29:59;16.02;;;13.90;;
33987;SDS011;37428;53.580;-1.666;2023-06-19T03:33:01;14.98;;;13.65;;
33987;SDS011;37428;53.580;-1.666;2023-06-19T03:36:05;16.00;;;14.70;;
33987;SDS011;37428;53.580;-1.666;2023-06-19T03:39:07;14.57;;;13.10;;
33987;SDS011;37428;53.580;-1.666;2023-06-19T03:42:11;13.82;;;12.57;;
33987;SDS011;37428;53.580;-1.666;2023-06-19T03:45:13;13.85;;;12.65;;
33987;SDS011;37428;53.580;-1.666;2023-06-19T03:48:15;13.70;;;12.38;;
33987;SDS011;37428;53.580;-1.666;2023-06-19T03:51:18;13.15;;;11.95;;
33987;SDS011;37428;53.580;-1.666;2023-06-19T03:54:20;12.50;;;11.38;;
33987;SDS011;37428;53.580;-1.666;2023-06-19T03:57:26;13.73;;;11.70;;
33987;SDS011;37428;53.580;-1.666;2023-06-19T04:00:28;14.07;;;12.65;;
33987;SDS011;37428;53.580;-1.666;2023-06-19T04:03:30;14.23;;;12.88;;
33987;SDS011;37428;53.580;-1.666;2023-06-19T04:06:33;14.32;;;12.77;;
33987;SDS011;37428;53.580;-1.666;2023-06-19T04:09:35;14.63;;;13.20;;
33987;SDS011;37428;53.580;-1.666;2023-06-19T04:12:38;13.70;;;12.50;;
33987;SDS011;37428;53.580;-1.666;2023-06-19T04:15:41;13.15;;;12.05;;
33987;SDS011;37428;53.580;-1.666;2023-06-19T04:18:44;14.55;;;13.15;;
33987;SDS011;37428;53.580;-1.666;2023-06-19T04:21:50;14.43;;;13.23;;
33987;SDS011;37428;53.580;-1.666;2023-06-19T04:24:54;15.50;;;13.45;;
33987;SDS011;37428;53.580;-1.666;2023-06-19T04:28:04;17.48;;;13.55;;
33987;SDS011;37428;53.580;-1.666;2023-06-19T04:31:06;14.75;;;12.77;;
33987;SDS011;37428;53.580;-1.666;2023-06-19T04:34:08;14.52;;;13.15;;
33987;SDS011;37428;53.580;-1.666;2023-06-19T04:37:10;13.70;;;12.38;;
33987;SDS011;37428;53.580;-1.666;2023-06-19T04:40:17;16.58;;;12.43;;
33987;SDS011;37428;53.580;-1.666;2023-06-19T04:43:24;15.25;;;13.85;;
33987;SDS011;37428;53.580;-1.666;2023-06-19T04:46:26;13.93;;;12.65;;
33987;SDS011;37428;53.580;-1.666;2023-06-19T04:49:29;13.40;;;10.50;;
33987;SDS011;37428;53.580;-1.666;2023-06-19T04:52:31;11.02;;;10.02;;
33987;SDS011;37428;53.580;-1.666;2023-06-19T04:55:35;12.60;;;10.13;;
33987;SDS011;37428;53.580;-1.666;2023-06-19T04:58:43;10.30;;;9.40;;
33987;SDS011;37428;53.580;-1.666;2023-06-19T05:01:47;11.52;;;10.35;;
33987;SDS011;37428;53.580;-1.666;2023-06-19T05:04:51;10.38;;;9.57;;
33987;SDS011;37428;53.580;-1.666;2023-06-19T05:07:53;11.75;;;9.50;;
33987;SDS011;37428;53.580;-1.666;2023-06-19T05:10:55;12.50;;;9.68;;
33987;SDS011;37428;53.580;-1.666;2023-06-19T05:14:01;11.15;;;10.05;;
33987;SDS011;37428;53.580;-1.666;2023-06-19T05:17:04;10.07;;;9.18;;
33987;SDS011;37428;53.580;-1.666;2023-06-19T05:20:07;9.65;;;8.75;;
33987;SDS011;37428;53.580;-1.666;2023-06-19T05:23:10;10.40;;;9.50;;
33987;SDS011;37428;53.580;-1.666;2023-06-19T05:26:12;11.57;;;10.38;;
33987;SDS011;37428;53.580;-1.666;2023-06-19T05:29:16;10.93;;;9.43;;
33987;SDS011;37428;53.580;-1.666;2023-06-19T05:32:21;10.65;;;9.73;;
33987;SDS011;37428;53.580;-1.666;2023-06-19T05:35:23;10.35;;;8.90;;
33987;SDS011;37428;53.580;-1.666;2023-06-19T05:41:30;9.70;;;8.70;;
33987;SDS011;37428;53.580;-1.666;2023-06-19T05:44:34;8.57;;;7.68;;
33987;SDS011;37428;53.580;-1.666;2023-06-19T05:47:36;8.35;;;7.20;;
33987;SDS011;37428;53.580;-1.666;2023-06-19T05:50:47;8.18;;;7.38;;
33987;SDS011;37428;53.580;-1.666;2023-06-19T05:53:49;8.40;;;7.70;;
33987;SDS011;37428;53.580;-1.666;2023-06-19T05:59:55;9.48;;;7.15;;
33987;SDS011;37428;53.580;-1.666;2023-06-19T06:02:57;8.70;;;7.35;;
33987;SDS011;37428;53.580;-1.666;2023-06-19T06:06:00;10.05;;;7.47;;
33987;SDS011;37428;53.580;-1.666;2023-06-19T06:09:04;10.13;;;6.72;;
33987;SDS011;37428;53.580;-1.666;2023-06-19T06:12:11;7.95;;;7.15;;
33987;SDS011;37428;53.580;-1.666;2023-06-19T06:15:18;7.03;;;6.32;;
33987;SDS011;37428;53.580;-1.666;2023-06-19T06:18:22;6.07;;;5.50;;
33987;SDS011;37428;53.580;-1.666;2023-06-19T06:21:30;9.40;;;6.93;;
33987;SDS011;37428;53.580;-1.666;2023-06-19T06:24:32;7.60;;;6.70;;
33987;SDS011;37428;53.580;-1.666;2023-06-19T06:27:48;6.88;;;5.95;;
33987;SDS011;37428;53.580;-1.666;2023-06-19T06:30:51;8.88;;;6.80;;
33987;SDS011;37428;53.580;-1.666;2023-06-19T06:33:53;8.25;;;6.20;;
33987;SDS011;37428;53.580;-1.666;2023-06-19T06:36:56;6.43;;;5.82;;
33987;SDS011;37428;53.580;-1.666;2023-06-19T06:39:58;8.10;;;5.43;;
33987;SDS011;37428;53.580;-1.666;2023-06-19T06:43:00;11.23;;;5.38;;
33987;SDS011;37428;53.580;-1.666;2023-06-19T06:46:06;5.80;;;4.57;;
33987;SDS011;37428;53.580;-1.666;2023-06-19T06:49:13;5.35;;;4.63;;
33987;SDS011;37428;53.580;-1.666;2023-06-19T06:52:17;7.30;;;4.55;;
33987;SDS011;37428;53.580;-1.666;2023-06-19T06:55:33;5.30;;;3.85;;
33987;SDS011;37428;53.580;-1.666;2023-06-19T06:58:38;3.83;;;3.53;;
33987;SDS011;37428;53.580;-1.666;2023-06-19T07:01:45;5.95;;;4.00;;
33987;SDS011;37428;53.580;-1.666;2023-06-19T07:05:08;7.45;;;4.13;;
33987;SDS011;37428;53.580;-1.666;2023-06-19T07:08:13;7.20;;;5.43;;
33987;SDS011;37428;53.580;-1.666;2023-06-19T07:11:17;6.45;;;4.32;;
33987;SDS011;37428;53.580;-1.666;2023-06-19T07:14:19;9.15;;;5.32;;
33987;SDS011;37428;53.580;-1.666;2023-06-19T07:17:25;6.95;;;5.80;;
33987;SDS011;37428;53.580;-1.666;2023-06-19T07:20:28;10.80;;;6.60;;
33987;SDS011;37428;53.580;-1.666;2023-06-19T07:23:30;11.15;;;7.43;;
33987;SDS011;37428;53.580;-1.666;2023-06-19T07:26:32;10.45;;;7.47;;
33987;SDS011;37428;53.580;-1.666;2023-06-19T07:29:34;12.23;;;7.00;;
33987;SDS011;37428;53.580;-1.666;2023-06-19T07:32:41;10.25;;;6.75;;
33987;SDS011;37428;53.580;-1.666;2023-06-19T07:35:43;13.05;;;7.20;;
33987;SDS011;37428;53.580;-1.666;2023-06-19T07:38:45;9.07;;;6.55;;
33987;SDS011;37428;53.580;-1.666;2023-06-19T07:41:47;9.82;;;6.38;;
33987;SDS011;37428;53.580;-1.666;2023-06-19T07:44:50;15.68;;;7.38;;
33987;SDS011;37428;53.580;-1.666;2023-06-19T07:47:56;12.05;;;7.00;;
33987;SDS011;37428;53.580;-1.666;2023-06-19T07:50:59;12.30;;;7.90;;
33987;SDS011;37428;53.580;-1.666;2023-06-19T07:54:01;10.07;;;6.57;;
33987;SDS011;37428;53.580;-1.666;2023-06-19T07:57:03;9.10;;;7.15;;
33987;SDS011;37428;53.580;-1.666;2023-06-19T08:03:13;10.52;;;6.60;;
33987;SDS011;37428;53.580;-1.666;2023-06-19T08:06:29;10.55;;;6.95;;
33987;SDS011;37428;53.580;-1.666;2023-06-19T08:09:36;12.05;;;6.40;;
33987;SDS011;37428;53.580;-1.666;2023-06-19T08:12:40;7.93;;;6.18;;
33987;SDS011;37428;53.580;-1.666;2023-06-19T08:15:42;7.82;;;6.60;;
33987;SDS011;37428;53.580;-1.666;2023-06-19T08:18:46;9.95;;;6.25;;
33987;SDS011;37428;53.580;-1.666;2023-06-19T08:21:48;7.78;;;4.82;;
33987;SDS011;37428;53.580;-1.666;2023-06-19T08:24:52;8.43;;;5.25;;
33987;SDS011;37428;53.580;-1.666;2023-06-19T08:27:56;6.93;;;5.35;;
33987;SDS011;37428;53.580;-1.666;2023-06-19T08:31:09;7.78;;;5.07;;
33987;SDS011;37428;53.580;-1.666;2023-06-19T08:37:42;7.80;;;5.25;;
33987;SDS011;37428;53.580;-1.666;2023-06-19T08:40:47;8.85;;;5.78;;
33987;SDS011;37428;53.580;-1.666;2023-06-19T08:43:53;6.15;;;4.97;;
33987;SDS011;37428;53.580;-1.666;2023-06-19T08:47:11;6.18;;;5.00;;
33987;SDS011;37428;53.580;-1.666;2023-06-19T08:50:19;8.43;;;5.22;;
33987;SDS011;37428;53.580;-1.666;2023-06-19T08:53:36;5.32;;;4.07;;
33987;SDS011;37428;53.580;-1.666;2023-06-19T08:56:46;8.63;;;4.78;;
33987;SDS011;37428;53.580;-1.666;2023-06-19T08:59:54;7.28;;;4.68;;
33987;SDS011;37428;53.580;-1.666;2023-06-19T09:02:58;10.13;;;4.85;;
33987;SDS011;37428;53.580;-1.666;2023-06-19T09:06:08;8.27;;;4.72;;
33987;SDS011;37428;53.580;-1.666;2023-06-19T09:09:10;5.97;;;4.22;;
33987;SDS011;37428;53.580;-1.666;2023-06-19T09:12:14;7.47;;;4.57;;
33987;SDS011;37428;53.580;-1.666;2023-06-19T09:15:17;5.10;;;4.45;;
33987;SDS011;37428;53.580;-1.666;2023-06-19T09:18:19;5.63;;;4.50;;
33987;SDS011;37428;53.580;-1.666;2023-06-19T09:21:23;8.93;;;4.13;;
33987;SDS011;37428;53.580;-1.666;2023-06-19T09:24:32;7.60;;;4.38;;
33987;SDS011;37428;53.580;-1.666;2023-06-19T09:27:35;7.30;;;4.55;;
33987;SDS011;37428;53.580;-1.666;2023-06-19T09:30:50;5.60;;;4.40;;
33987;SDS011;37428;53.580;-1.666;2023-06-19T09:33:53;6.13;;;4.45;;
33987;SDS011;37428;53.580;-1.666;2023-06-19T09:36:56;5.10;;;4.28;;
33987;SDS011;37428;53.580;-1.666;2023-06-19T09:39:59;6.03;;;3.60;;
33987;SDS011;37428;53.580;-1.666;2023-06-19T09:43:10;8.10;;;4.75;;
33987;SDS011;37428;53.580;-1.666;2023-06-19T09:46:12;6.68;;;3.78;;
33987;SDS011;37428;53.580;-1.666;2023-06-19T09:49:16;5.20;;;3.42;;
33987;SDS011;37428;53.580;-1.666;2023-06-19T09:52:21;8.85;;;3.58;;
33987;SDS011;37428;53.580;-1.666;2023-06-19T09:55:27;4.65;;;3.40;;
33987;SDS011;37428;53.580;-1.666;2023-06-19T09:58:31;4.38;;;3.97;;
33987;SDS011;37428;53.580;-1.666;2023-06-19T10:01:33;6.43;;;4.03;;
33987;SDS011;37428;53.580;-1.666;2023-06-19T10:04:43;4.30;;;3.47;;
33987;SDS011;37428;53.580;-1.666;2023-06-19T10:07:48;6.43;;;3.28;;
33987;SDS011;37428;53.580;-1.666;2023-06-19T10:10:50;6.63;;;3.65;;
33987;SDS011;37428;53.580;-1.666;2023-06-19T10:13:53;4.20;;;3.75;;
33987;SDS011;37428;53.580;-1.666;2023-06-19T10:17:09;4.07;;;3.13;;
33987;SDS011;37428;53.580;-1.666;2023-06-19T10:20:22;4.97;;;3.47;;
33987;SDS011;37428;53.580;-1.666;2023-06-19T10:23:36;4.07;;;3.05;;
33987;SDS011;37428;53.580;-1.666;2023-06-19T10:27:01;6.07;;;3.50;;
33987;SDS011;37428;53.580;-1.666;2023-06-19T10:30:04;3.63;;;2.88;;
33987;SDS011;37428;53.580;-1.666;2023-06-19T10:33:17;5.70;;;3.22;;
33987;SDS011;37428;53.580;-1.666;2023-06-19T10:36:20;4.97;;;3.28;;
33987;SDS011;37428;53.580;-1.666;2023-06-19T10:39:25;4.72;;;3.67;;
33987;SDS011;37428;53.580;-1.666;2023-06-19T10:42:28;4.93;;;3.38;;
33987;SDS011;37428;53.580;-1.666;2023-06-19T10:45:30;7.65;;;3.28;;
33987;SDS011;37428;53.580;-1.666;2023-06-19T10:48:32;5.53;;;3.13;;
33987;SDS011;37428;53.580;-1.666;2023-06-19T10:51:34;5.22;;;3.10;;
33987;SDS011;37428;53.580;-1.666;2023-06-19T10:54:38;6.68;;;3.38;;
33987;SDS011;37428;53.580;-1.666;2023-06-19T10:57:43;4.50;;;2.35;;
33987;SDS011;37428;53.580;-1.666;2023-06-19T11:00:46;3.42;;;2.33;;
33987;SDS011;37428;53.580;-1.666;2023-06-19T11:03:48;7.28;;;2.70;;
33987;SDS011;37428;53.580;-1.666;2023-06-19T11:06:51;3.60;;;3.10;;
33987;SDS011;37428;53.580;-1.666;2023-06-19T11:09:55;3.47;;;3.17;;
33987;SDS011;37428;53.580;-1.666;2023-06-19T11:12:57;4.30;;;2.78;;
33987;SDS011;37428;53.580;-1.666;2023-06-19T11:16:00;4.97;;;2.88;;
33987;SDS011;37428;53.580;-1.666;2023-06-19T11:19:02;5.68;;;2.90;;
33987;SDS011;37428;53.580;-1.666;2023-06-19T11:22:04;3.92;;;2.95;;
33987;SDS011;37428;53.580;-1.666;2023-06-19T11:25:09;4.97;;;2.70;;
33987;SDS011;37428;53.580;-1.666;2023-06-19T11:28:12;2.88;;;2.55;;
33987;SDS011;37428;53.580;-1.666;2023-06-19T11:31:14;3.55;;;3.25;;
33987;SDS011;37428;53.580;-1.666;2023-06-19T11:34:17;3.25;;;2.85;;
33987;SDS011;37428;53.580;-1.666;2023-06-19T11:37:19;3.28;;;2.58;;
33987;SDS011;37428;53.580;-1.666;2023-06-19T11:40:23;5.03;;;2.65;;
33987;SDS011;37428;53.580;-1.666;2023-06-19T11:43:26;3.47;;;2.58;;
33987;SDS011;37428;53.580;-1.666;2023-06-19T11:46:31;3.30;;;2.33;;
33987;SDS011;37428;53.580;-1.666;2023-06-19T11:49:34;2.70;;;2.20;;
33987;SDS011;37428;53.580;-1.666;2023-06-19T11:52:37;2.35;;;2.05;;
33987;SDS011;37428;53.580;-1.666;2023-06-19T11:58:43;3.08;;;2.25;;
33987;SDS011;37428;53.580;-1.666;2023-06-19T12:01:46;4.68;;;2.92;;
33987;SDS011;37428;53.580;-1.666;2023-06-19T12:04:48;4.72;;;2.38;;
33987;SDS011;37428;53.580;-1.666;2023-06-19T12:07:50;4.43;;;2.72;;
33987;SDS011;37428;53.580;-1.666;2023-06-19T12:13:55;4.53;;;2.70;;
33987;SDS011;37428;53.580;-1.666;2023-06-19T12:16:59;4.05;;;2.50;;
33987;SDS011;37428;53.580;-1.666;2023-06-19T12:20:02;2.80;;;2.38;;
33987;SDS011;37428;53.580;-1.666;2023-06-19T12:23:06;3.22;;;2.50;;
33987;SDS011;37428;53.580;-1.666;2023-06-19T12:26:09;4.68;;;3.10;;
33987;SDS011;37428;53.580;-1.666;2023-06-19T12:29:11;7.93;;;3.33;;
33987;SDS011;37428;53.580;-1.666;2023-06-19T12:32:13;2.55;;;2.08;;
33987;SDS011;37428;53.580;-1.666;2023-06-19T12:35:15;4.78;;;2.53;;
33987;SDS011;37428;53.580;-1.666;2023-06-19T12:38:19;4.70;;;2.47;;
33987;SDS011;37428;53.580;-1.666;2023-06-19T12:44:24;4.55;;;2.25;;
33987;SDS011;37428;53.580;-1.666;2023-06-19T12:47:26;4.93;;;2.40;;
33987;SDS011;37428;53.580;-1.666;2023-06-19T12:53:30;3.63;;;2.47;;
33987;SDS011;37428;53.580;-1.666;2023-06-19T12:56:33;5.40;;;2.35;;
33987;SDS011;37428;53.580;-1.666;2023-06-19T12:59:36;4.80;;;2.55;;
33987;SDS011;37428;53.580;-1.666;2023-06-19T13:02:38;3.08;;;2.38;;
33987;SDS011;37428;53.580;-1.666;2023-06-19T13:05:40;5.07;;;2.50;;
33987;SDS011;37428;53.580;-1.666;2023-06-19T13:11:46;2.92;;;2.45;;
33987;SDS011;37428;53.580;-1.666;2023-06-19T13:14:49;2.90;;;2.30;;
33987;SDS011;37428;53.580;-1.666;2023-06-19T13:17:51;3.90;;;3.03;;
33987;SDS011;37428;53.580;-1.666;2023-06-19T13:20:54;2.92;;;2.65;;
33987;SDS011;37428;53.580;-1.666;2023-06-19T13:23:56;5.88;;;2.80;;
33987;SDS011;37428;53.580;-1.666;2023-06-19T13:27:00;5.00;;;3.08;;
33987;SDS011;37428;53.580;-1.666;2023-06-19T13:30:03;5.95;;;3.28;;
33987;SDS011;37428;53.580;-1.666;2023-06-19T13:33:06;6.25;;;3.67;;
33987;SDS011;37428;53.580;-1.666;2023-06-19T13:36:08;8.38;;;3.72;;
33987;SDS011;37428;53.580;-1.666;2023-06-19T13:39:10;7.10;;;2.72;;
33987;SDS011;37428;53.580;-1.666;2023-06-19T13:42:14;6.50;;;2.92;;
33987;SDS011;37428;53.580;-1.666;2023-06-19T13:45:16;4.15;;;2.03;;
33987;SDS011;37428;53.580;-1.666;2023-06-19T13:48:18;3.60;;;2.78;;
33987;SDS011;37428;53.580;-1.666;2023-06-19T13:51:20;2.70;;;1.83;;
33987;SDS011;37428;53.580;-1.666;2023-06-19T13:54:23;3.33;;;2.50;;
33987;SDS011;37428;53.580;-1.666;2023-06-19T13:57:26;4.18;;;2.35;;
33987;SDS011;37428;53.580;-1.666;2023-06-19T14:00:28;2.60;;;2.40;;
33987;SDS011;37428;53.580;-1.666;2023-06-19T14:06:32;2.87;;;2.50;;
33987;SDS011;37428;53.580;-1.666;2023-06-19T14:09:34;3.38;;;2.58;;
33987;SDS011;37428;53.580;-1.666;2023-06-19T14:15:40;3.15;;;2.85;;
33987;SDS011;37428;53.580;-1.666;2023-06-19T14:18:42;5.35;;;3.20;;
33987;SDS011;37428;53.580;-1.666;2023-06-19T14:21:45;4.70;;;2.90;;
33987;SDS011;37428;53.580;-1.666;2023-06-19T14:24:47;3.65;;;2.42;;
33987;SDS011;37428;53.580;-1.666;2023-06-19T14:30:52;2.53;;;2.05;;
33987;SDS011;37428;53.580;-1.666;2023-06-19T14:33:54;4.15;;;2.67;;
33987;SDS011;37428;53.580;-1.666;2023-06-19T14:36:56;5.00;;;2.85;;
33987;SDS011;37428;53.580;-1.666;2023-06-19T14:39:58;3.70;;;3.33;;
33987;SDS011;37428;53.580;-1.666;2023-06-19T14:43:02;5.47;;;3.28;;
33987;SDS011;37428;53.580;-1.666;2023-06-19T14:46:04;4.40;;;3.65;;
33987;SDS011;37428;53.580;-1.666;2023-06-19T14:49:06;5.00;;;3.25;;
33987;SDS011;37428;53.580;-1.666;2023-06-19T14:52:08;4.53;;;3.20;;
33987;SDS011;37428;53.580;-1.666;2023-06-19T14:55:10;4.25;;;3.58;;
33987;SDS011;37428;53.580;-1.666;2023-06-19T14:58:14;4.47;;;3.67;;
33987;SDS011;37428;53.580;-1.666;2023-06-19T15:01:16;5.00;;;3.90;;
33987;SDS011;37428;53.580;-1.666;2023-06-19T15:04:18;5.20;;;3.75;;
33987;SDS011;37428;53.580;-1.666;2023-06-19T15:10:22;3.63;;;2.60;;
33987;SDS011;37428;53.580;-1.666;2023-06-19T15:13:26;2.90;;;2.42;;
33987;SDS011;37428;53.580;-1.666;2023-06-19T15:16:28;3.63;;;2.35;;
33987;SDS011;37428;53.580;-1.666;2023-06-19T15:19:30;3.38;;;3.03;;
33987;SDS011;37428;53.580;-1.666;2023-06-19T15:22:32;4.13;;;2.45;;
33987;SDS011;37428;53.580;-1.666;2023-06-19T15:25:34;4.07;;;2.88;;
33987;SDS011;37428;53.580;-1.666;2023-06-19T15:28:38;3.28;;;2.40;;
33987;SDS011;37428;53.580;-1.666;2023-06-19T15:31:40;9.50;;;4.13;;
33987;SDS011;37428;53.580;-1.666;2023-06-19T15:37:44;3.10;;;2.70;;
33987;SDS011;37428;53.580;-1.666;2023-06-19T15:40:46;5.20;;;2.83;;
33987;SDS011;37428;53.580;-1.666;2023-06-19T15:46:52;4.88;;;2.50;;
33987;SDS011;37428;53.580;-1.666;2023-06-19T15:49:54;3.33;;;2.35;;
33987;SDS011;37428;53.580;-1.666;2023-06-19T15:52:56;8.95;;;2.70;;
33987;SDS011;37428;53.580;-1.666;2023-06-19T15:55:58;5.07;;;2.50;;
33987;SDS011;37428;53.580;-1.666;2023-06-19T15:59:02;5.70;;;3.22;;
33987;SDS011;37428;53.580;-1.666;2023-06-19T16:02:04;5.10;;;3.28;;
33987;SDS011;37428;53.580;-1.666;2023-06-19T16:05:07;3.35;;;2.28;;
33987;SDS011;37428;53.580;-1.666;2023-06-19T16:08:09;5.93;;;2.33;;
33987;SDS011;37428;53.580;-1.666;2023-06-19T16:11:11;4.03;;;2.20;;
33987;SDS011;37428;53.580;-1.666;2023-06-19T16:17:17;6.20;;;2.42;;
33987;SDS011;37428;53.580;-1.666;2023-06-19T16:23:21;4.85;;;2.40;;
33987;SDS011;37428;53.580;-1.666;2023-06-19T16:29:26;6.07;;;2.37;;
33987;SDS011;37428;53.580;-1.666;2023-06-19T16:32:28;4.18;;;2.88;;
33987;SDS011;37428;53.580;-1.666;2023-06-19T16:35:30;2.88;;;2.22;;
33987;SDS011;37428;53.580;-1.666;2023-06-19T16:38:33;3.78;;;2.17;;
33987;SDS011;37428;53.580;-1.666;2023-06-19T16:41:35;3.75;;;1.85;;
33987;SDS011;37428;53.580;-1.666;2023-06-19T16:44:38;4.80;;;2.70;;
33987;SDS011;37428;53.580;-1.666;2023-06-19T16:47:40;2.95;;;2.28;;
33987;SDS011;37428;53.580;-1.666;2023-06-19T16:50:42;4.35;;;2.40;;
33987;SDS011;37428;53.580;-1.666;2023-06-19T16:53:44;5.60;;;2.60;;
33987;SDS011;37428;53.580;-1.666;2023-06-19T16:59:50;4.50;;;2.35;;
33987;SDS011;37428;53.580;-1.666;2023-06-19T17:02:52;3.67;;;2.08;;
33987;SDS011;37428;53.580;-1.666;2023-06-19T17:05:55;2.45;;;2.08;;
33987;SDS011;37428;53.580;-1.666;2023-06-19T17:08:57;3.42;;;2.00;;
33987;SDS011;37428;53.580;-1.666;2023-06-19T17:11:59;6.22;;;2.55;;
33987;SDS011;37428;53.580;-1.666;2023-06-19T17:15:03;2.88;;;1.90;;
33987;SDS011;37428;53.580;-1.666;2023-06-19T17:18:07;2.10;;;1.80;;
33987;SDS011;37428;53.580;-1.666;2023-06-19T17:21:09;3.97;;;2.03;;
33987;SDS011;37428;53.580;-1.666;2023-06-19T17:24:12;2.78;;;1.85;;
33987;SDS011;37428;53.580;-1.666;2023-06-19T17:30:17;7.20;;;2.00;;
33987;SDS011;37428;53.580;-1.666;2023-06-19T17:33:21;5.85;;;1.83;;
33987;SDS011;37428;53.580;-1.666;2023-06-19T17:36:23;3.10;;;2.20;;
33987;SDS011;37428;53.580;-1.666;2023-06-19T17:39:25;14.98;;;2.63;;
33987;SDS011;37428;53.580;-1.666;2023-06-19T17:42:29;2.58;;;2.00;;
33987;SDS011;37428;53.580;-1.666;2023-06-19T17:45:32;3.47;;;2.05;;
33987;SDS011;37428;53.580;-1.666;2023-06-19T17:48:34;2.45;;;2.15;;
33987;SDS011;37428;53.580;-1.666;2023-06-19T17:51:38;7.20;;;2.17;;
33987;SDS011;37428;53.580;-1.666;2023-06-19T17:54:40;3.50;;;1.77;;
33987;SDS011;37428;53.580;-1.666;2023-06-19T17:57:44;3.85;;;2.17;;
33987;SDS011;37428;53.580;-1.666;2023-06-19T18:00:48;3.10;;;2.00;;
33987;SDS011;37428;53.580;-1.666;2023-06-19T18:03:50;4.78;;;2.30;;
33987;SDS011;37428;53.580;-1.666;2023-06-19T18:06:52;3.20;;;2.05;;
33987;SDS011;37428;53.580;-1.666;2023-06-19T18:09:55;5.25;;;2.00;;
33987;SDS011;37428;53.580;-1.666;2023-06-19T18:12:57;3.60;;;2.15;;
33987;SDS011;37428;53.580;-1.666;2023-06-19T18:16:00;2.78;;;1.90;;
33987;SDS011;37428;53.580;-1.666;2023-06-19T18:19:02;5.00;;;2.85;;
33987;SDS011;37428;53.580;-1.666;2023-06-19T18:22:05;3.92;;;2.35;;
33987;SDS011;37428;53.580;-1.666;2023-06-19T18:28:09;3.40;;;2.30;;
33987;SDS011;37428;53.580;-1.666;2023-06-19T18:31:13;2.72;;;1.83;;
33987;SDS011;37428;53.580;-1.666;2023-06-19T18:34:15;2.80;;;1.83;;
33987;SDS011;37428;53.580;-1.666;2023-06-19T18:37:17;5.15;;;1.60;;
33987;SDS011;37428;53.580;-1.666;2023-06-19T18:40:21;3.80;;;2.50;;
33987;SDS011;37428;53.580;-1.666;2023-06-19T18:43:24;3.88;;;1.80;;
33987;SDS011;37428;53.580;-1.666;2023-06-19T18:46:28;3.00;;;1.70;;
33987;SDS011;37428;53.580;-1.666;2023-06-19T18:49:30;3.15;;;1.80;;
33987;SDS011;37428;53.580;-1.666;2023-06-19T18:52:32;2.15;;;1.80;;
33987;SDS011;37428;53.580;-1.666;2023-06-19T18:55:34;3.38;;;2.00;;
33987;SDS011;37428;53.580;-1.666;2023-06-19T18:58:37;2.13;;;1.80;;
33987;SDS011;37428;53.580;-1.666;2023-06-19T19:01:43;3.13;;;2.45;;
33987;SDS011;37428;53.580;-1.666;2023-06-19T19:04:45;4.05;;;2.00;;
33987;SDS011;37428;53.580;-1.666;2023-06-19T19:07:48;2.85;;;1.70;;
33987;SDS011;37428;53.580;-1.666;2023-06-19T19:10:52;2.95;;;1.70;;